Time;durP1;ratioP1;P1;durP2;ratioP2;P2;SDS_P1;SDS_P2;PMS_P1;PMS_P2;Temp;Humidity;BMP_temperature;BMP_pressure;BME280_temperature;BME280_humidity;BME280_pressure;Samples;Min_cycle;Max_cycle;Signal;HPM_P1;HPM_P2
2020/12/13 00:01:17;;;;;;;28.27;8.73;;;4.50;99.90;;;;;;5063800;28;20048;-64
2020/12/13 00:03:44;;;;;;;31.42;8.57;;;4.50;99.90;;;;;;5056507;28;20043;-64
2020/12/13 00:06:11;;;;;;;27.95;8.80;;;4.50;99.90;;;;;;5058778;28;20134;-64
2020/12/13 00:08:37;;;;;;;32.85;9.10;;;4.50;99.90;;;;;;5059389;28;20041;-64
2020/12/13 00:11:04;;;;;;;25.95;8.68;;;4.50;99.90;;;;;;5058854;28;20045;-64
2020/12/13 00:13:30;;;;;;;26.85;8.25;;;4.50;99.90;;;;;;5060364;28;20047;-64
2020/12/13 00:15:56;;;;;;;23.10;8.35;;;4.40;99.90;;;;;;5062996;28;20048;-64
2020/12/13 00:18:23;;;;;;;28.73;8.85;;;4.40;99.90;;;;;;5060532;28;20057;-64
2020/12/13 00:20:49;;;;;;;29.70;8.82;;;4.40;99.90;;;;;;5067477;28;20115;-64
2020/12/13 00:23:16;;;;;;;25.50;8.10;;;4.40;99.90;;;;;;5061340;28;20033;-64
2020/12/13 00:25:43;;;;;;;30.85;9.43;;;4.40;99.90;;;;;;5055976;28;20053;-64
2020/12/13 00:28:09;;;;;;;34.28;9.55;;;4.40;99.90;;;;;;5056556;28;20041;-64
2020/12/13 00:30:37;;;;;;;26.00;7.47;;;4.40;99.90;;;;;;5060767;28;20048;-64
2020/12/13 00:33:03;;;;;;;23.88;8.07;;;4.30;99.90;;;;;;5058439;28;20102;-64
2020/12/13 00:35:30;;;;;;;31.90;9.63;;;4.40;99.90;;;;;;5056224;28;20049;-64
2020/12/13 00:37:56;;;;;;;29.75;10.02;;;4.40;99.90;;;;;;5037848;28;20102;-64
2020/12/13 00:40:23;;;;;;;31.10;9.85;;;4.30;99.90;;;;;;5057374;28;20499;-64
2020/12/13 00:42:49;;;;;;;35.67;10.35;;;4.30;99.90;;;;;;5049441;28;20041;-64
2020/12/13 00:45:16;;;;;;;28.02;9.20;;;4.30;99.90;;;;;;5067990;28;20099;-64
2020/12/13 00:47:43;;;;;;;30.88;9.73;;;4.30;99.90;;;;;;5065610;28;20128;-64
2020/12/13 00:50:10;;;;;;;35.10;9.70;;;4.30;99.90;;;;;;5047593;28;20098;-64
2020/12/13 00:52:40;;;;;;;28.05;9.95;;;4.30;99.90;;;;;;5062176;28;20587;-64
2020/12/13 00:55:07;;;;;;;32.08;9.25;;;4.30;99.90;;;;;;5058566;28;20048;-64
2020/12/13 00:57:33;;;;;;;30.40;9.48;;;4.30;99.90;;;;;;5060754;28;20460;-64
2020/12/13 01:00:00;;;;;;;36.65;10.40;;;4.30;99.90;;;;;;5063981;28;20043;-64
2020/12/13 01:02:27;;;;;;;29.38;10.77;;;4.40;99.90;;;;;;5049656;28;20102;-64
2020/12/13 01:04:53;;;;;;;33.33;9.82;;;4.30;99.90;;;;;;5059187;28;20055;-64
2020/12/13 01:07:20;;;;;;;37.55;10.27;;;4.40;99.90;;;;;;5054241;28;20041;-64
2020/12/13 01:09:47;;;;;;;38.30;9.65;;;4.40;99.90;;;;;;5067009;28;21146;-64
2020/12/13 01:12:13;;;;;;;33.88;10.07;;;4.50;99.90;;;;;;5058860;28;20052;-64
2020/12/13 01:14:40;;;;;;;34.17;9.93;;;4.50;99.90;;;;;;5079441;28;20533;-64
2020/12/13 01:17:09;;;;;;;33.78;9.93;;;4.50;99.90;;;;;;5055238;28;20052;-64
2020/12/13 01:19:36;;;;;;;34.05;10.23;;;4.50;99.90;;;;;;5061621;28;20415;-64
2020/12/13 01:22:03;;;;;;;37.22;9.82;;;4.50;99.90;;;;;;5065668;28;20045;-64
2020/12/13 01:24:29;;;;;;;36.72;10.32;;;4.60;99.90;;;;;;5068359;28;20519;-64
2020/12/13 01:26:56;;;;;;;27.70;9.30;;;4.50;99.90;;;;;;5060533;28;20045;-64
2020/12/13 01:29:22;;;;;;;35.97;10.63;;;4.50;99.90;;;;;;5061641;28;20037;-64
2020/12/13 01:31:49;;;;;;;35.38;9.80;;;4.50;99.90;;;;;;5057038;28;20067;-64
2020/12/13 01:34:15;;;;;;;38.55;10.75;;;4.50;99.90;;;;;;5059669;28;20041;-64
2020/12/13 01:36:42;;;;;;;35.67;9.68;;;4.50;99.90;;;;;;5064993;28;20044;-64
2020/12/13 01:39:08;;;;;;;35.10;11.35;;;4.50;99.90;;;;;;5061576;28;20060;-64
2020/12/13 01:41:35;;;;;;;30.55;9.10;;;4.50;99.90;;;;;;5061160;28;20111;-64
2020/12/13 01:44:04;;;;;;;25.40;9.70;;;4.50;99.90;;;;;;5067261;28;20037;-64
2020/12/13 01:46:32;;;;;;;34.65;10.65;;;4.50;99.90;;;;;;5043175;28;20135;-64
2020/12/13 01:49:09;;;;;;;32.13;10.85;;;4.50;99.90;;;;;;5043385;28;20036;-64
2020/12/13 01:51:54;;;;;;;33.45;9.90;;;4.50;99.90;;;;;;5064847;28;20040;-64
2020/12/13 01:54:21;;;;;;;28.70;9.63;;;4.50;99.90;;;;;;5064486;28;20068;-64
2020/12/13 01:56:53;;;;;;;32.00;9.27;;;4.60;99.90;;;;;;5059026;28;20036;-64
2020/12/13 01:59:21;;;;;;;40.42;9.30;;;4.50;99.90;;;;;;5067748;28;20043;-64
2020/12/13 02:01:52;;;;;;;29.08;9.32;;;4.50;99.90;;;;;;5082029;28;20028;-64
2020/12/13 02:04:22;;;;;;;31.27;10.38;;;4.60;99.90;;;;;;5057379;28;20032;-63
2020/12/13 02:06:54;;;;;;;39.22;10.10;;;4.50;99.90;;;;;;5065895;28;20051;-63
2020/12/13 02:09:22;;;;;;;30.63;9.80;;;4.50;99.90;;;;;;5045031;28;20048;-63
2020/12/13 02:11:49;;;;;;;36.70;10.13;;;4.50;99.90;;;;;;5063173;28;20044;-63
2020/12/13 02:14:16;;;;;;;33.85;10.75;;;4.50;99.90;;;;;;5060799;28;20051;-63
2020/12/13 02:16:44;;;;;;;35.80;11.32;;;4.40;99.90;;;;;;5065951;28;20113;-64
2020/12/13 02:19:12;;;;;;;31.70;10.32;;;4.40;99.90;;;;;;5060626;28;20068;-64
2020/12/13 02:21:46;;;;;;;33.38;11.25;;;4.40;99.90;;;;;;5053476;28;20459;-64
2020/12/13 02:24:14;;;;;;;29.63;9.70;;;4.40;99.90;;;;;;5050538;28;20115;-64
2020/12/13 02:26:42;;;;;;;32.65;10.20;;;4.40;99.90;;;;;;5060815;28;20492;-64
2020/12/13 02:29:08;;;;;;;31.50;9.90;;;4.40;99.90;;;;;;5060639;28;20686;-64
2020/12/13 02:31:35;;;;;;;34.78;9.35;;;4.40;99.90;;;;;;5066749;28;20048;-64
2020/12/13 02:34:03;;;;;;;30.40;9.38;;;4.40;99.90;;;;;;5062752;28;20297;-64
2020/12/13 02:36:31;;;;;;;33.53;10.45;;;4.40;99.90;;;;;;5063328;28;20047;-64
2020/12/13 02:38:59;;;;;;;33.63;10.63;;;4.40;99.90;;;;;;5064443;28;20044;-64
2020/12/13 02:41:25;;;;;;;37.90;10.38;;;4.40;99.90;;;;;;5061449;28;20059;-64
2020/12/13 02:43:52;;;;;;;32.00;10.82;;;4.40;99.90;;;;;;5059683;28;20110;-64
2020/12/13 02:46:18;;;;;;;36.22;10.75;;;4.40;99.90;;;;;;5068519;28;20098;-64
2020/12/13 02:48:45;;;;;;;34.58;10.25;;;4.40;99.90;;;;;;5065917;28;20045;-64
2020/12/13 02:51:11;;;;;;;36.90;10.98;;;4.40;99.90;;;;;;5064905;28;20090;-64
2020/12/13 02:53:38;;;;;;;37.10;10.20;;;4.40;99.90;;;;;;5060313;28;20048;-64
2020/12/13 02:56:04;;;;;;;33.90;10.80;;;4.40;99.90;;;;;;5062277;28;20040;-64
2020/12/13 02:58:31;;;;;;;37.00;11.27;;;4.50;99.90;;;;;;5065649;28;20053;-63
2020/12/13 03:00:57;;;;;;;32.63;10.68;;;4.50;99.90;;;;;;5065113;28;20049;-63
2020/12/13 03:03:25;;;;;;;39.33;11.23;;;4.50;99.90;;;;;;5067184;28;20455;-63
2020/12/13 03:05:52;;;;;;;37.67;11.38;;;4.50;99.90;;;;;;5059305;28;20056;-63
2020/12/13 03:08:18;;;;;;;34.22;10.93;;;4.50;99.90;;;;;;5069207;28;20646;-63
2020/12/13 03:10:45;;;;;;;27.75;8.93;;;4.60;99.90;;;;;;5069695;28;20072;-63
2020/12/13 03:13:12;;;;;;;31.85;10.20;;;4.60;99.90;;;;;;5061910;28;20040;-63
2020/12/13 03:15:38;;;;;;;29.58;10.05;;;4.50;99.90;;;;;;5061576;28;20052;-64
2020/12/13 03:18:05;;;;;;;31.50;11.18;;;4.50;99.90;;;;;;5065038;28;20053;-63
2020/12/13 03:20:31;;;;;;;32.97;11.82;;;4.50;99.90;;;;;;5062000;28;20632;-63
2020/12/13 03:22:58;;;;;;;31.50;9.90;;;4.60;99.90;;;;;;5061895;28;20053;-63
2020/12/13 03:25:25;;;;;;;29.80;9.85;;;4.50;99.90;;;;;;5084894;28;20036;-63
2020/12/13 03:27:52;;;;;;;34.00;9.98;;;4.50;99.90;;;;;;5064164;28;20139;-63
2020/12/13 03:30:18;;;;;;;26.58;9.10;;;4.50;99.90;;;;;;5059603;28;20040;-63
2020/12/13 03:32:45;;;;;;;31.80;9.55;;;4.50;99.90;;;;;;5058908;28;20098;-63
2020/12/13 03:35:12;;;;;;;24.75;8.60;;;4.50;99.90;;;;;;5059065;28;20067;-63
2020/12/13 03:37:38;;;;;;;33.65;9.48;;;4.50;99.90;;;;;;5061956;28;20052;-63
2020/12/13 03:40:06;;;;;;;29.73;8.85;;;4.50;99.90;;;;;;5065689;28;20040;-63
2020/12/13 03:42:33;;;;;;;27.67;9.23;;;4.50;99.90;;;;;;5063085;28;20380;-63
2020/12/13 03:44:59;;;;;;;26.80;8.65;;;4.50;99.90;;;;;;5042558;28;20044;-63
2020/12/13 03:47:26;;;;;;;23.00;8.60;;;4.50;99.90;;;;;;5065316;28;20048;-64
2020/12/13 03:49:52;;;;;;;31.58;8.15;;;4.50;99.90;;;;;;5054126;28;20086;-64
2020/12/13 03:52:19;;;;;;;22.05;7.45;;;4.50;99.90;;;;;;5054391;28;20045;-64
2020/12/13 03:54:46;;;;;;;24.17;7.60;;;4.40;99.90;;;;;;5076875;28;20055;-63
2020/12/13 03:57:12;;;;;;;20.67;7.05;;;4.50;99.90;;;;;;5064825;28;20051;-63
2020/12/13 03:59:39;;;;;;;18.75;6.95;;;4.40;99.90;;;;;;5060216;28;20053;-63
2020/12/13 04:02:06;;;;;;;22.88;7.03;;;4.40;99.90;;;;;;5060682;28;20041;-63
2020/12/13 04:04:32;;;;;;;23.00;7.68;;;4.40;99.90;;;;;;5061240;28;20040;-63
2020/12/13 04:06:59;;;;;;;22.67;7.50;;;4.30;99.90;;;;;;5060571;28;20044;-63
2020/12/13 04:09:25;;;;;;;20.55;7.38;;;4.30;99.90;;;;;;5055984;28;20040;-63
2020/12/13 04:11:52;;;;;;;23.92;6.90;;;4.30;99.90;;;;;;5079373;28;20044;-63
2020/12/13 04:14:18;;;;;;;23.63;8.75;;;4.30;99.90;;;;;;5060921;28;20040;-64
2020/12/13 04:16:46;;;;;;;22.50;7.90;;;4.30;99.90;;;;;;5067547;28;20059;-64
2020/12/13 04:19:13;;;;;;;25.17;7.90;;;4.30;99.90;;;;;;5062012;28;20053;-64
2020/12/13 04:21:39;;;;;;;25.75;7.82;;;4.30;99.90;;;;;;5066022;28;20484;-64
2020/12/13 04:24:06;;;;;;;23.60;7.47;;;4.30;99.90;;;;;;5061935;28;20041;-63
2020/12/13 04:26:32;;;;;;;24.83;7.93;;;4.30;99.90;;;;;;5056187;28;20041;-63
2020/12/13 04:28:59;;;;;;;26.17;8.20;;;4.30;99.90;;;;;;5060314;28;20099;-63
2020/12/13 04:31:25;;;;;;;27.02;8.32;;;4.30;99.90;;;;;;5064303;28;20102;-64
2020/12/13 04:33:52;;;;;;;23.85;8.27;;;4.30;99.90;;;;;;5065666;28;20051;-64
2020/12/13 04:36:19;;;;;;;28.55;7.38;;;4.30;99.90;;;;;;5066095;28;20044;-64
2020/12/13 04:38:45;;;;;;;27.02;7.78;;;4.40;99.90;;;;;;5064900;28;20067;-64
2020/12/13 04:41:13;;;;;;;29.63;7.78;;;4.40;99.90;;;;;;5065080;28;20048;-64
2020/12/13 04:43:39;;;;;;;24.58;7.25;;;4.40;99.90;;;;;;5065781;28;20043;-64
2020/12/13 04:46:07;;;;;;;24.00;7.10;;;4.40;99.90;;;;;;5057645;28;20044;-64
2020/12/13 04:48:35;;;;;;;21.50;7.05;;;4.40;99.90;;;;;;5055756;28;20075;-64
2020/12/13 04:51:03;;;;;;;21.80;7.75;;;4.40;99.90;;;;;;5055231;28;20037;-64
2020/12/13 04:53:29;;;;;;;25.45;7.63;;;4.40;99.90;;;;;;5064996;28;20049;-64
2020/12/13 04:55:58;;;;;;;22.33;7.18;;;4.30;99.90;;;;;;5065490;28;20114;-64
2020/12/13 04:58:29;;;;;;;23.80;7.13;;;4.30;99.90;;;;;;5062096;28;20048;-64
2020/12/13 05:01:01;;;;;;;22.52;8.85;;;4.40;99.90;;;;;;5071152;28;20036;-64
2020/12/13 05:03:29;;;;;;;22.05;7.78;;;4.40;99.90;;;;;;5066745;28;20055;-64
2020/12/13 05:06:01;;;;;;;24.00;7.78;;;4.30;99.90;;;;;;5061925;28;20037;-64
2020/12/13 05:08:28;;;;;;;21.25;7.53;;;4.40;99.90;;;;;;5067734;28;20053;-64
2020/12/13 05:10:56;;;;;;;24.42;7.22;;;4.40;99.90;;;;;;5064627;28;20043;-64
2020/12/13 05:13:23;;;;;;;24.88;7.45;;;4.30;99.90;;;;;;5063909;28;20048;-64
2020/12/13 05:15:49;;;;;;;25.75;7.55;;;4.30;99.90;;;;;;5071167;28;20458;-64
2020/12/13 05:18:16;;;;;;;23.27;7.13;;;4.30;99.90;;;;;;5069406;28;20052;-64
2020/12/13 05:20:46;;;;;;;25.35;8.27;;;4.30;99.90;;;;;;5068721;28;20064;-64
2020/12/13 05:23:13;;;;;;;26.13;7.53;;;4.30;99.90;;;;;;5066794;28;20039;-64
2020/12/13 05:25:40;;;;;;;26.58;8.45;;;4.30;99.90;;;;;;5069008;28;20522;-64
2020/12/13 05:28:11;;;;;;;24.27;8.23;;;4.20;99.90;;;;;;5066426;28;20041;-64
2020/12/13 05:30:48;;;;;;;17.35;6.75;;;4.30;99.90;;;;;;5056321;28;20048;-64
2020/12/13 05:33:33;;;;;;;23.42;8.07;;;4.30;99.90;;;;;;5077914;28;20495;-65
2020/12/13 05:36:04;;;;;;;21.10;7.68;;;4.30;99.90;;;;;;5058925;28;20048;-64
2020/12/13 05:38:41;;;;;;;24.63;7.63;;;4.30;99.90;;;;;;5064974;28;20048;-64
2020/12/13 05:41:10;;;;;;;24.85;7.72;;;4.30;99.90;;;;;;5056874;28;20055;-64
2020/12/13 05:43:48;;;;;;;23.27;8.32;;;4.20;99.90;;;;;;5067531;28;20094;-64
2020/12/13 05:49:22;;;;;;;25.58;8.68;;;4.30;99.90;;;;;;5060596;28;20041;-64
2020/12/13 05:51:50;;;;;;;28.67;8.32;;;4.30;99.90;;;;;;5052884;28;20082;-64
2020/12/13 05:54:24;;;;;;;22.52;7.57;;;4.20;99.90;;;;;;5067528;28;20041;-64
2020/12/13 05:56:57;;;;;;;25.33;8.32;;;4.20;99.90;;;;;;5065083;28;20041;-63
2020/12/13 05:59:25;;;;;;;19.80;6.78;;;4.20;99.90;;;;;;5066659;28;20041;-63
2020/12/13 06:01:54;;;;;;;23.38;6.78;;;4.20;99.90;;;;;;5067384;28;20041;-64
2020/12/13 06:04:43;;;;;;;23.05;6.78;;;4.10;99.90;;;;;;5078479;28;20041;-64
2020/12/13 06:07:12;;;;;;;23.27;7.43;;;4.10;99.90;;;;;;5071249;28;20040;-64
2020/12/13 06:09:40;;;;;;;27.65;7.63;;;4.10;99.90;;;;;;5082039;28;20053;-64
2020/12/13 06:12:11;;;;;;;31.15;10.32;;;4.00;99.90;;;;;;5066575;28;20036;-64
2020/12/13 06:14:41;;;;;;;30.10;9.18;;;4.10;99.90;;;;;;5060542;28;20483;-63
2020/12/13 06:17:08;;;;;;;23.40;7.93;;;4.10;99.90;;;;;;5065083;28;20047;-63
2020/12/13 06:19:38;;;;;;;21.52;7.80;;;4.10;99.90;;;;;;5058207;28;20047;-63
2020/12/13 06:22:13;;;;;;;21.33;6.78;;;4.10;99.90;;;;;;5064390;28;20052;-64
2020/12/13 06:24:39;;;;;;;21.25;7.47;;;4.10;99.90;;;;;;5062011;28;20709;-64
2020/12/13 06:27:06;;;;;;;22.20;8.43;;;4.10;99.90;;;;;;5070733;28;20037;-64
2020/12/13 06:29:33;;;;;;;24.88;6.45;;;4.10;99.90;;;;;;5062580;28;20051;-64
2020/12/13 06:32:00;;;;;;;19.05;6.75;;;4.10;99.90;;;;;;5068897;28;20158;-64
2020/12/13 06:34:27;;;;;;;21.92;7.32;;;4.10;99.90;;;;;;5065379;28;20044;-64
2020/12/13 06:36:57;;;;;;;18.63;5.97;;;4.20;99.90;;;;;;5066458;28;20044;-64
2020/12/13 06:39:23;;;;;;;21.58;6.68;;;4.20;99.90;;;;;;5067858;28;20123;-64
2020/12/13 06:41:54;;;;;;;18.60;6.55;;;4.10;99.90;;;;;;5064611;28;20167;-64
2020/12/13 06:44:22;;;;;;;20.75;6.45;;;4.20;99.90;;;;;;5062903;28;20071;-64
2020/12/13 06:46:48;;;;;;;19.58;6.47;;;4.20;99.90;;;;;;5062182;28;20797;-64
2020/12/13 06:49:23;;;;;;;16.95;6.35;;;4.20;99.90;;;;;;5052878;28;20508;-64
2020/12/13 06:51:59;;;;;;;17.60;5.90;;;4.20;99.90;;;;;;5056559;28;20045;-65
2020/12/13 06:54:26;;;;;;;15.88;5.47;;;4.20;99.90;;;;;;5064286;28;20049;-64
2020/12/13 06:56:53;;;;;;;19.95;6.78;;;4.20;99.90;;;;;;5064817;28;20534;-63
2020/12/13 06:59:21;;;;;;;16.35;5.90;;;4.10;99.90;;;;;;5067663;28;20078;-63
2020/12/13 07:01:48;;;;;;;23.20;6.90;;;4.20;99.90;;;;;;5062897;28;20123;-63
2020/12/13 07:04:20;;;;;;;20.77;5.78;;;4.20;99.90;;;;;;5064965;28;20041;-63
2020/12/13 07:06:59;;;;;;;14.15;5.13;;;4.20;99.90;;;;;;5068133;28;20036;-63
2020/12/13 07:09:28;;;;;;;16.40;5.05;;;4.30;99.90;;;;;;5056911;28;20033;-63
2020/12/13 07:11:56;;;;;;;11.27;4.13;;;4.30;99.90;;;;;;5062382;28;20052;-62
2020/12/13 07:14:25;;;;;;;13.25;4.70;;;4.30;99.90;;;;;;5063267;28;20483;-61
2020/12/13 07:17:04;;;;;;;15.57;5.63;;;4.30;99.90;;;;;;5069534;28;20749;-61
2020/12/13 07:19:34;;;;;;;16.40;5.18;;;4.40;99.90;;;;;;5064991;28;20040;-61
2020/12/13 07:22:04;;;;;;;17.23;5.07;;;4.40;99.90;;;;;;5058876;28;20044;-61
2020/12/13 07:24:37;;;;;;;12.90;5.50;;;4.40;99.90;;;;;;5063603;28;20056;-61
2020/12/13 07:27:12;;;;;;;12.50;4.82;;;4.40;99.90;;;;;;5058330;28;20037;-61
2020/12/13 07:29:39;;;;;;;13.63;5.82;;;4.50;99.90;;;;;;5056459;28;20036;-61
2020/12/13 07:32:06;;;;;;;18.58;6.15;;;4.50;99.90;;;;;;5062430;28;20044;-61
2020/12/13 07:34:34;;;;;;;15.60;5.57;;;4.50;99.90;;;;;;5069201;28;20068;-61
2020/12/13 07:37:01;;;;;;;18.17;5.90;;;4.60;99.90;;;;;;5066443;28;20040;-61
2020/12/13 07:39:29;;;;;;;17.77;5.32;;;4.60;99.90;;;;;;5062298;28;20095;-61
2020/12/13 07:41:57;;;;;;;17.95;6.40;;;4.70;99.90;;;;;;5068417;28;20049;-61
2020/12/13 07:44:33;;;;;;;21.80;7.63;;;4.70;99.90;;;;;;5061278;28;20546;-61
2020/12/13 07:47:06;;;;;;;22.55;6.75;;;4.60;99.90;;;;;;5060403;28;20380;-61
2020/12/13 07:49:33;;;;;;;20.08;6.28;;;4.70;99.90;;;;;;5060291;28;20067;-62
2020/12/13 07:51:59;;;;;;;16.58;5.90;;;4.80;99.90;;;;;;5054203;28;20586;-61
2020/12/13 07:54:28;;;;;;;13.02;4.82;;;4.70;99.90;;;;;;5066727;28;20049;-61
2020/12/13 07:56:57;;;;;;;15.63;5.95;;;4.80;99.90;;;;;;5068143;28;20600;-61
2020/12/13 07:59:28;;;;;;;16.08;5.47;;;4.80;99.90;;;;;;5059293;28;20434;-61
2020/12/13 08:01:58;;;;;;;14.98;5.90;;;4.80;99.90;;;;;;5063105;28;20051;-61
2020/12/13 08:04:44;;;;;;;14.52;5.00;;;4.80;99.90;;;;;;5057850;28;20124;-61
2020/12/13 08:07:12;;;;;;;19.55;6.05;;;4.80;99.90;;;;;;5065435;28;20040;-61
2020/12/13 08:09:41;;;;;;;18.27;6.07;;;4.90;99.90;;;;;;5060961;28;20044;-61
2020/12/13 08:12:09;;;;;;;15.85;5.32;;;5.00;99.90;;;;;;5061132;28;20045;-61
2020/12/13 08:14:42;;;;;;;21.83;6.57;;;4.90;99.90;;;;;;5061575;28;20048;-61
2020/12/13 08:17:18;;;;;;;15.18;5.40;;;4.90;99.90;;;;;;5066980;28;20048;-63
2020/12/13 08:19:48;;;;;;;16.40;6.38;;;5.00;99.90;;;;;;5059671;28;20502;-63
2020/12/13 08:22:26;;;;;;;15.95;5.93;;;5.10;99.90;;;;;;5059255;28;20044;-63
2020/12/13 08:25:03;;;;;;;16.70;6.05;;;5.10;99.90;;;;;;5060799;28;20075;-63
2020/12/13 08:27:33;;;;;;;18.00;5.38;;;5.10;99.90;;;;;;5057513;28;20049;-63
2020/12/13 08:30:00;;;;;;;14.48;5.45;;;5.20;99.90;;;;;;5061084;28;20434;-63
2020/12/13 08:32:32;;;;;;;13.63;5.57;;;5.20;99.90;;;;;;5058244;28;20044;-61
2020/12/13 08:35:17;;;;;;;16.50;6.10;;;5.20;99.90;;;;;;5059602;28;20044;-61
2020/12/13 08:37:56;;;;;;;17.85;6.25;;;5.20;99.90;;;;;;5061928;28;20656;-61
2020/12/13 08:40:37;;;;;;;16.65;6.32;;;5.20;99.90;;;;;;5059558;28;20137;-64
2020/12/13 08:43:04;;;;;;;21.30;7.82;;;5.20;99.90;;;;;;5059750;28;20121;-63
2020/12/13 08:45:31;;;;;;;19.23;6.65;;;5.10;99.90;;;;;;5061248;28;20064;-63
2020/12/13 08:48:07;;;;;;;14.57;5.40;;;5.10;99.90;;;;;;5060334;28;20122;-64
2020/12/13 08:50:39;;;;;;;17.55;5.55;;;5.10;99.90;;;;;;5058446;28;20068;-63
2020/12/13 08:53:20;;;;;;;13.80;4.68;;;5.10;99.90;;;;;;5073500;28;20073;-63
2020/12/13 08:56:09;;;;;;;19.27;6.30;;;5.20;99.90;;;;;;5057914;28;22475;-63
2020/12/13 08:58:57;;;;;;;18.65;6.25;;;5.20;99.90;;;;;;5056025;28;20059;-63
2020/12/13 09:01:30;;;;;;;43.50;13.73;;;5.30;99.90;;;;;;5059367;28;20044;-63
2020/12/13 09:03:57;;;;;;;42.78;12.63;;;5.30;99.90;;;;;;5058637;28;20068;-63
2020/12/13 09:06:34;;;;;;;34.05;10.95;;;5.40;99.90;;;;;;5057652;28;20032;-63
2020/12/13 09:09:11;;;;;;;33.42;11.50;;;5.30;99.90;;;;;;5056537;28;20392;-63
2020/12/13 09:11:37;;;;;;;18.40;7.20;;;5.20;99.90;;;;;;5054132;28;20044;-63
2020/12/13 09:14:04;;;;;;;16.33;6.72;;;5.20;99.90;;;;;;5060042;28;20049;-63
2020/12/13 09:16:34;;;;;;;24.55;10.40;;;5.30;99.90;;;;;;5061600;28;20060;-63
2020/12/13 09:19:08;;;;;;;22.92;8.95;;;5.30;99.90;;;;;;5061231;28;20060;-63
2020/12/13 09:21:50;;;;;;;24.27;9.38;;;5.30;99.90;;;;;;5054038;28;20199;-63
2020/12/13 09:24:18;;;;;;;;;;;5.30;99.90;;;;;;5056708;28;20029;-63
2020/12/13 09:27:03;;;;;;;16.70;6.00;;;5.30;99.90;;;;;;5068239;28;20462;-63
2020/12/13 09:29:37;;;;;;;18.98;6.55;;;5.30;99.90;;;;;;5061396;28;20044;-63
2020/12/13 09:32:10;;;;;;;19.98;7.85;;;5.30;99.90;;;;;;5070738;28;20470;-63
2020/12/13 09:34:38;;;;;;;19.40;6.78;;;5.30;99.90;;;;;;5049977;28;20381;-63
2020/12/13 09:37:08;;;;;;;19.70;7.22;;;5.30;99.90;;;;;;5063545;28;20040;-64
2020/12/13 09:39:35;;;;;;;17.27;5.90;;;5.30;99.90;;;;;;5057280;28;20048;-64
2020/12/13 09:42:02;;;;;;;16.90;5.78;;;5.30;99.90;;;;;;5062761;28;20036;-64
2020/12/13 09:44:29;;;;;;;16.60;6.18;;;5.30;99.90;;;;;;5061402;28;20075;-63
2020/12/13 09:46:58;;;;;;;16.13;5.78;;;5.30;99.90;;;;;;5060117;28;20492;-63
2020/12/13 09:49:26;;;;;;;17.40;6.38;;;5.30;99.90;;;;;;5059276;28;20043;-63
2020/12/13 09:52:02;;;;;;;15.57;5.75;;;5.30;99.90;;;;;;5064861;28;20048;-64
2020/12/13 09:54:30;;;;;;;20.58;6.72;;;5.30;99.90;;;;;;5062852;28;20057;-63
2020/12/13 09:56:57;;;;;;;17.90;5.72;;;5.40;99.90;;;;;;5060915;28;20544;-63
2020/12/13 09:59:25;;;;;;;19.33;7.32;;;5.40;99.90;;;;;;5067284;28;20470;-63
2020/12/13 10:01:52;;;;;;;18.70;6.75;;;5.30;99.90;;;;;;5061066;28;20033;-63
2020/12/13 10:04:21;;;;;;;15.00;5.53;;;5.30;99.90;;;;;;5061592;28;20040;-63
2020/12/13 10:07:10;;;;;;;15.15;5.18;;;5.20;99.90;;;;;;5065784;28;20124;-63
2020/12/13 10:09:43;;;;;;;16.38;6.28;;;5.20;99.90;;;;;;5059930;28;20548;-63
2020/12/13 10:12:11;;;;;;;17.48;5.65;;;5.20;99.90;;;;;;5061472;28;20049;-63
2020/12/13 10:14:38;;;;;;;19.90;6.72;;;5.20;99.90;;;;;;5060219;28;20033;-63
2020/12/13 10:17:06;;;;;;;13.50;5.78;;;5.20;99.90;;;;;;5062010;28;20454;-63
2020/12/13 10:19:34;;;;;;;16.42;5.70;;;5.20;99.90;;;;;;5065323;28;20442;-63
2020/12/13 10:22:01;;;;;;;17.77;6.05;;;5.20;99.90;;;;;;5063133;28;20047;-63
2020/12/13 10:24:27;;;;;;;16.70;6.57;;;5.20;99.90;;;;;;5058949;28;20049;-63
2020/12/13 10:26:55;;;;;;;22.13;8.05;;;5.20;99.90;;;;;;5040595;28;20071;-63
2020/12/13 10:29:22;;;;;;;21.83;7.57;;;5.30;99.90;;;;;;5062675;28;20490;-63
2020/12/13 10:31:49;;;;;;;20.10;8.10;;;5.30;99.90;;;;;;5058114;28;20090;-63
2020/12/13 10:34:16;;;;;;;17.77;8.02;;;5.30;99.90;;;;;;5060384;28;20580;-63
2020/12/13 10:36:44;;;;;;;17.13;7.25;;;5.30;99.90;;;;;;5059890;28;20044;-64
2020/12/13 10:39:12;;;;;;;21.73;7.75;;;5.30;99.90;;;;;;5063404;28;20037;-64
2020/12/13 10:41:38;;;;;;;15.38;6.97;;;5.40;99.90;;;;;;5065890;28;20053;-63
2020/12/13 10:44:05;;;;;;;17.73;6.50;;;5.40;99.90;;;;;;5065993;28;20078;-63
2020/12/13 10:46:31;;;;;;;19.30;7.97;;;5.40;99.90;;;;;;5069527;28;20047;-63
2020/12/13 10:48:58;;;;;;;17.38;7.10;;;5.40;99.90;;;;;;5067388;28;20148;-63
2020/12/13 10:51:31;;;;;;;18.63;6.85;;;5.40;99.90;;;;;;5066413;28;20037;-64
2020/12/13 10:54:02;;;;;;;17.35;6.35;;;5.40;99.90;;;;;;5044905;28;20037;-64
2020/12/13 10:56:30;;;;;;;23.10;7.95;;;5.50;99.90;;;;;;5048255;28;20045;-64
2020/12/13 10:58:56;;;;;;;21.48;7.47;;;5.50;99.90;;;;;;5062337;28;20750;-64
2020/12/13 11:01:23;;;;;;;19.75;7.03;;;5.40;99.90;;;;;;5065137;28;20044;-64
2020/12/13 11:03:50;;;;;;;20.88;6.80;;;5.50;99.90;;;;;;5047571;28;20045;-63
2020/12/13 11:06:16;;;;;;;19.40;6.45;;;5.50;99.90;;;;;;5065014;28;20513;-63
2020/12/13 11:08:42;;;;;;;18.52;7.18;;;5.50;99.90;;;;;;5058537;28;20033;-63
2020/12/13 11:11:09;;;;;;;21.50;8.23;;;5.50;99.90;;;;;;5045153;28;20048;-63
2020/12/13 11:13:36;;;;;;;25.63;10.02;;;5.60;99.90;;;;;;5065411;28;20056;-64
2020/12/13 11:16:03;;;;;;;22.60;8.82;;;5.70;99.90;;;;;;5058228;28;20050;-65
2020/12/13 11:18:30;;;;;;;18.83;6.88;;;5.70;99.90;;;;;;5061348;28;20052;-64
2020/12/13 11:20:58;;;;;;;19.50;7.22;;;5.70;99.90;;;;;;5064671;28;20040;-64
2020/12/13 11:23:26;;;;;;;17.08;6.82;;;5.80;99.90;;;;;;5047205;28;20139;-64
2020/12/13 11:25:52;;;;;;;16.02;6.25;;;5.90;99.90;;;;;;5053468;28;20043;-63
2020/12/13 11:28:19;;;;;;;24.05;7.53;;;5.90;99.90;;;;;;5057529;28;20040;-64
2020/12/13 11:30:45;;;;;;;21.58;8.82;;;5.90;99.90;;;;;;5056522;28;20492;-64
2020/12/13 11:33:18;;;;;;;26.65;9.57;;;5.90;99.90;;;;;;5057561;28;20056;-63
2020/12/13 11:35:51;;;;;;;24.17;8.38;;;6.00;99.90;;;;;;5054432;28;20946;-64
2020/12/13 11:38:18;;;;;;;25.13;9.80;;;6.10;99.90;;;;;;5059518;28;20044;-63
2020/12/13 11:40:44;;;;;;;23.13;8.15;;;6.10;99.90;;;;;;5053145;28;20053;-62
2020/12/13 11:43:14;;;;;;;19.80;7.70;;;6.10;99.90;;;;;;5060952;28;20533;-63
2020/12/13 11:45:42;;;;;;;20.63;8.15;;;6.10;99.90;;;;;;5064415;28;20045;-60
2020/12/13 11:48:09;;;;;;;20.70;7.68;;;6.10;99.90;;;;;;5050397;28;20419;-61
2020/12/13 11:50:42;;;;;;;17.80;7.13;;;6.20;99.90;;;;;;5062301;28;20131;-62
2020/12/13 11:53:08;;;;;;;19.38;8.07;;;6.20;99.90;;;;;;5057489;28;20051;-62
2020/12/13 11:55:36;;;;;;;27.00;8.82;;;6.20;99.90;;;;;;5062814;28;20052;-62
2020/12/13 11:58:04;;;;;;;21.10;9.15;;;6.30;99.90;;;;;;5066069;28;20052;-62
2020/12/13 12:00:30;;;;;;;22.83;9.43;;;6.20;99.90;;;;;;5055814;28;20089;-62
2020/12/13 12:02:57;;;;;;;20.95;8.00;;;6.20;99.90;;;;;;5054326;28;20041;-62
2020/12/13 12:05:23;;;;;;;24.77;8.68;;;6.20;99.90;;;;;;5064344;28;20039;-62
2020/12/13 12:07:50;;;;;;;18.25;7.68;;;6.10;99.90;;;;;;5065241;28;20044;-61
2020/12/13 12:10:21;;;;;;;24.10;7.88;;;6.10;99.90;;;;;;5056015;28;20051;-62
2020/12/13 12:12:48;;;;;;;21.35;8.02;;;6.10;99.90;;;;;;5059773;28;20049;-62
2020/12/13 12:15:14;;;;;;;19.42;7.28;;;6.00;99.90;;;;;;5064375;28;20048;-61
2020/12/13 12:17:41;;;;;;;29.02;8.57;;;6.00;99.90;;;;;;5065790;28;20057;-61
2020/12/13 12:20:08;;;;;;;23.15;7.85;;;6.00;99.90;;;;;;5059729;28;20056;-61
2020/12/13 12:22:34;;;;;;;22.50;7.40;;;5.90;99.90;;;;;;5054324;28;20092;-61
2020/12/13 12:25:01;;;;;;;19.98;7.25;;;5.90;99.90;;;;;;5061934;28;20811;-61
2020/12/13 12:27:27;;;;;;;18.75;6.82;;;5.90;99.90;;;;;;5057705;28;20090;-62
2020/12/13 12:29:54;;;;;;;22.75;8.25;;;5.80;99.90;;;;;;5064265;28;20788;-61
2020/12/13 12:32:20;;;;;;;21.63;7.60;;;5.80;99.90;;;;;;5056131;28;20045;-62
2020/12/13 12:34:47;;;;;;;21.20;7.57;;;5.80;99.90;;;;;;5056517;28;20134;-61
2020/12/13 12:37:13;;;;;;;22.00;7.70;;;5.80;99.90;;;;;;5063656;28;20484;-61
2020/12/13 12:39:40;;;;;;;21.73;7.68;;;5.70;99.90;;;;;;5060297;28;20046;-61
2020/12/13 12:42:06;;;;;;;25.70;9.85;;;5.70;99.90;;;;;;5065898;28;20094;-61
2020/12/13 12:44:32;;;;;;;26.17;10.35;;;5.60;99.90;;;;;;5062902;28;20060;-61
2020/12/13 12:47:01;;;;;;;24.02;9.52;;;5.60;99.90;;;;;;5063710;28;20136;-61
2020/12/13 12:49:27;;;;;;;34.17;12.48;;;5.60;99.90;;;;;;5063400;28;20052;-61
2020/12/13 12:51:54;;;;;;;27.20;8.05;;;5.70;99.90;;;;;;5062394;28;20048;-61
2020/12/13 12:54:20;;;;;;;25.15;9.25;;;5.70;99.90;;;;;;5060151;28;20798;-61
2020/12/13 12:56:47;;;;;;;20.45;6.70;;;5.70;99.90;;;;;;5066004;28;20040;-61